Skip to main content.
Our real time weather data display below is updated continuously via our 24/7 live data feed.
 TIME   TEMPERATURE   WINDSPEED   DIRECTION   HUMIDITY   BAROMETER   RAINFALL 
0:05 24.0°C (75.2°F) 7.4 kmh (4.6 mph) WSW 88% 1016.9hPa (30.03 inHg) 0.0mm (0.00 in.)
23:05 24.0°C (75.2 °F) 7.4 kmh (4.6 mph) WSW 83% 1016.9hPa (30.03 inHg) 0.0mm (0.00 in.)
22:05 24.0°C (75.2 °F) 5.6 kmh (3.5 mph) WSW 83% 1016.9hPa (30.03 inHg) 0.0mm (0.00 in.)
21:05 24.0°C (75.2 °F) 7.4 kmh (4.6 mph) W 83% 1015.9hPa (30.00 inHg) 0.0mm (0.00 in.)
20:05 25.0°C (77.0 °F) 7.4 kmh (4.6 mph) W 78% 1015.9hPa (30.00 inHg) 0.0mm (0.00 in.)
19:05 26.0°C (78.8 °F) 5.6 kmh (3.5 mph) W 73% 1015.9hPa (30.00 inHg) 0.0mm (0.00 in.)
18:05 27.0°C (80.6 °F) 13.0 kmh (8.1 mph) W 69% 1015.9hPa (30.00 inHg) 0.0mm (0.00 in.)
17:05 28.0°C (82.4 °F) 14.8 kmh (9.2 mph) WSW 61% 1015.9hPa (30.00 inHg) 0.0mm (0.00 in.)
16:05 28.0°C (82.4 °F) 16.7 kmh (10.4 mph) WSW 61% 1015.9hPa (30.00 inHg) 0.0mm (0.00 in.)
15:05 28.0°C (82.4 °F) 16.7 kmh (10.4 mph) WSW 58% 1015.9hPa (30.00 inHg) 0.0mm (0.00 in.)
14:05 28.0°C (82.4 °F) 9.3 kmh (5.8 mph) SW 58% 1015.9hPa (30.00 inHg) 0.0mm (0.00 in.)
13:05 27.0°C (80.6 °F) 13.0 kmh (8.1 mph) WSW 61% 1016.9hPa (30.03 inHg) 0.0mm (0.00 in.)
12:05 27.0°C (80.6 °F) 9.3 kmh (5.8 mph) SW 61% 1016.9hPa (30.03 inHg) 0.0mm (0.00 in.)
11:05 27.0°C (80.6 °F) 9.3 kmh (5.8 mph) SW 61% 1016.9hPa (30.03 inHg) 0.0mm (0.00 in.)
10:05 26.0°C (78.8 °F) 16.7 kmh (10.4 mph) WSW 65% 1016.9hPa (30.03 inHg) 0.0mm (0.00 in.)
9:05 25.0°C (77.0 °F) 9.3 kmh (5.8 mph) WSW 73% 1016.9hPa (30.03 inHg) 0.0mm (0.00 in.)
8:05 22.0°C (71.6 °F) 5.6 kmh (3.5 mph) SSW 88% 1015.9hPa (30.00 inHg) 0.0mm (0.00 in.)
7:05 20.0°C (68.0 °F) 5.6 kmh (3.5 mph) S 93% 1015.9hPa (30.00 inHg) 0.0mm (0.00 in.)
6:05 20.0°C (68.0 °F) 5.6 kmh (3.5 mph) SSW 93% 1015.9hPa (30.00 inHg) 0.0mm (0.00 in.)
5:05 21.0°C (69.8 °F) 3.7 kmh (2.3 mph) SSW 88% 1015.9hPa (30.00 inHg) 0.0mm (0.00 in.)
4:05 21.0°C (69.8 °F) 3.7 kmh (2.3 mph) W 88% 1015.9hPa (30.00 inHg) 0.0mm (0.00 in.)
3:05 22.0°C (71.6 °F) 5.6 kmh (3.5 mph) W 83% 1015.9hPa (30.00 inHg) 0.0mm (0.00 in.)
2:05 21.0°C (69.8 °F) 5.6 kmh (3.5 mph) W 88% 1016.9hPa (30.03 inHg) 0.0mm (0.00 in.)
1:05 21.0°C (69.8 °F) 5.6 kmh (3.5 mph) W 82% 1016.9hPa (30.03 inHg) 0.0mm (0.00 in.)